sensor_id;sensor_type;location;lat;lon;timestamp;pressure;altitude;pressure_sealevel;temperature;humidity
31331;BME280;34067;39.548;-76.088;2023-04-19T00:00:55;101059.55;;;7.77;44.70
31331;BME280;34067;39.548;-76.088;2023-04-19T00:03:24;101078.36;;;8.06;47.56
31331;BME280;34067;39.548;-76.088;2023-04-19T00:05:52;101080.90;;;9.07;47.10
31331;BME280;34067;39.548;-76.088;2023-04-19T00:08:20;101092.22;;;7.38;44.60
31331;BME280;34067;39.548;-76.088;2023-04-19T00:10:48;101093.66;;;7.63;44.90
31331;BME280;34067;39.548;-76.088;2023-04-19T00:13:16;101098.91;;;8.26;47.06
31331;BME280;34067;39.548;-76.088;2023-04-19T00:15:45;101107.08;;;8.34;45.16
31331;BME280;34067;39.548;-76.088;2023-04-19T00:18:13;101125.08;;;8.26;45.18
31331;BME280;34067;39.548;-76.088;2023-04-19T00:20:41;101116.92;;;7.41;45.44
31331;BME280;34067;39.548;-76.088;2023-04-19T00:23:10;101129.05;;;7.78;44.72
31331;BME280;34067;39.548;-76.088;2023-04-19T00:25:38;101135.13;;;8.44;45.96
31331;BME280;34067;39.548;-76.088;2023-04-19T00:28:06;101130.53;;;6.98;45.41
31331;BME280;34067;39.548;-76.088;2023-04-19T00:30:34;101143.04;;;7.52;44.63
31331;BME280;34067;39.548;-76.088;2023-04-19T00:33:02;101147.72;;;7.14;48.84
31331;BME280;34067;39.548;-76.088;2023-04-19T00:35:30;101145.82;;;6.82;45.67
31331;BME280;34067;39.548;-76.088;2023-04-19T00:37:58;101162.28;;;8.32;46.98
31331;BME280;34067;39.548;-76.088;2023-04-19T00:40:26;101169.37;;;7.26;46.84
31331;BME280;34067;39.548;-76.088;2023-04-19T00:42:55;101175.85;;;6.88;47.87
31331;BME280;34067;39.548;-76.088;2023-04-19T00:45:23;101185.13;;;7.09;47.41
31331;BME280;34067;39.548;-76.088;2023-04-19T00:47:51;101194.31;;;7.35;45.86
31331;BME280;34067;39.548;-76.088;2023-04-19T00:50:25;101202.98;;;7.25;44.08
31331;BME280;34067;39.548;-76.088;2023-04-19T00:52:54;101221.39;;;7.04;45.13
31331;BME280;34067;39.548;-76.088;2023-04-19T00:55:22;101218.08;;;6.49;45.32
31331;BME280;34067;39.548;-76.088;2023-04-19T00:57:50;101230.17;;;6.30;46.54
31331;BME280;34067;39.548;-76.088;2023-04-19T01:00:19;101237.18;;;6.44;45.36
31331;BME280;34067;39.548;-76.088;2023-04-19T01:02:47;101252.24;;;6.64;45.99
31331;BME280;34067;39.548;-76.088;2023-04-19T01:05:15;101255.08;;;6.44;47.27
31331;BME280;34067;39.548;-76.088;2023-04-19T01:07:43;101259.66;;;6.38;45.92
31331;BME280;34067;39.548;-76.088;2023-04-19T01:10:11;101259.66;;;6.77;46.94
31331;BME280;34067;39.548;-76.088;2023-04-19T01:12:39;101262.22;;;6.26;47.73
31331;BME280;34067;39.548;-76.088;2023-04-19T01:15:08;101262.84;;;6.82;52.51
31331;BME280;34067;39.548;-76.088;2023-04-19T01:17:37;101265.83;;;5.97;47.14
31331;BME280;34067;39.548;-76.088;2023-04-19T01:20:07;101280.47;;;6.06;49.03
31331;BME280;34067;39.548;-76.088;2023-04-19T01:22:35;101281.05;;;6.51;50.65
31331;BME280;34067;39.548;-76.088;2023-04-19T01:25:03;101293.61;;;5.81;48.75
31331;BME280;34067;39.548;-76.088;2023-04-19T01:27:31;101305.14;;;6.25;48.77
31331;BME280;34067;39.548;-76.088;2023-04-19T01:29:59;101295.36;;;5.91;48.86
31331;BME280;34067;39.548;-76.088;2023-04-19T01:32:27;101293.86;;;6.22;51.59
31331;BME280;34067;39.548;-76.088;2023-04-19T01:34:56;101299.86;;;5.41;47.84
31331;BME280;34067;39.548;-76.088;2023-04-19T01:37:24;101318.80;;;6.05;51.74
31331;BME280;34067;39.548;-76.088;2023-04-19T01:39:52;101322.33;;;6.50;50.52
31331;BME280;34067;39.548;-76.088;2023-04-19T01:42:20;101333.37;;;5.96;49.68
31331;BME280;34067;39.548;-76.088;2023-04-19T01:44:48;101323.05;;;6.24;53.96
31331;BME280;34067;39.548;-76.088;2023-04-19T01:47:16;101326.65;;;5.17;51.09
31331;BME280;34067;39.548;-76.088;2023-04-19T01:49:44;101327.05;;;5.30;50.07
31331;BME280;34067;39.548;-76.088;2023-04-19T01:52:12;101334.29;;;5.27;46.86
31331;BME280;34067;39.548;-76.088;2023-04-19T01:54:40;101339.55;;;6.00;51.35
31331;BME280;34067;39.548;-76.088;2023-04-19T01:57:09;101345.54;;;5.27;47.57
31331;BME280;34067;39.548;-76.088;2023-04-19T01:59:37;101364.93;;;5.51;49.30
31331;BME280;34067;39.548;-76.088;2023-04-19T02:02:06;101377.37;;;5.56;47.49
31331;BME280;34067;39.548;-76.088;2023-04-19T02:04:34;101378.84;;;5.26;47.34
31331;BME280;34067;39.548;-76.088;2023-04-19T02:07:02;101394.48;;;5.25;50.28
31331;BME280;34067;39.548;-76.088;2023-04-19T02:09:34;101395.27;;;6.14;49.04
31331;BME280;34067;39.548;-76.088;2023-04-19T02:12:03;101410.06;;;4.69;48.02
31331;BME280;34067;39.548;-76.088;2023-04-19T02:14:31;101406.81;;;4.55;46.75
31331;BME280;34067;39.548;-76.088;2023-04-19T02:16:59;101419.40;;;5.06;49.92
31331;BME280;34067;39.548;-76.088;2023-04-19T02:19:27;101411.20;;;5.51;47.49
31331;BME280;34067;39.548;-76.088;2023-04-19T02:21:56;101414.14;;;5.10;47.52
31331;BME280;34067;39.548;-76.088;2023-04-19T02:24:23;101413.60;;;5.56;47.15
31331;BME280;34067;39.548;-76.088;2023-04-19T02:26:51;101412.18;;;4.29;48.08
31331;BME280;34067;39.548;-76.088;2023-04-19T02:29:19;101414.40;;;5.17;50.37
31331;BME280;34067;39.548;-76.088;2023-04-19T02:31:47;101421.63;;;5.04;48.99
31331;BME280;34067;39.548;-76.088;2023-04-19T02:34:15;101426.14;;;4.31;49.38
31331;BME280;34067;39.548;-76.088;2023-04-19T02:36:43;101433.47;;;4.56;47.66
31331;BME280;34067;39.548;-76.088;2023-04-19T02:39:11;101436.51;;;5.03;48.15
31331;BME280;34067;39.548;-76.088;2023-04-19T02:41:39;101428.36;;;5.65;50.28
31331;BME280;34067;39.548;-76.088;2023-04-19T02:44:07;101429.88;;;4.84;47.82
31331;BME280;34067;39.548;-76.088;2023-04-19T02:46:36;101430.63;;;5.01;49.65
31331;BME280;34067;39.548;-76.088;2023-04-19T02:49:04;101435.85;;;5.15;49.56
31331;BME280;34067;39.548;-76.088;2023-04-19T02:51:31;101449.49;;;5.25;47.62
31331;BME280;34067;39.548;-76.088;2023-04-19T02:53:59;101432.14;;;6.65;47.41
31331;BME280;34067;39.548;-76.088;2023-04-19T02:56:27;101444.68;;;4.44;50.33
31331;BME280;34067;39.548;-76.088;2023-04-19T02:58:57;101448.59;;;5.18;47.39
31331;BME280;34067;39.548;-76.088;2023-04-19T03:01:26;101444.02;;;5.72;47.86
31331;BME280;34067;39.548;-76.088;2023-04-19T03:03:55;101433.13;;;5.27;48.91
31331;BME280;34067;39.548;-76.088;2023-04-19T03:06:22;101442.45;;;5.36;47.59
31331;BME280;34067;39.548;-76.088;2023-04-19T03:08:50;101447.06;;;5.36;46.98
31331;BME280;34067;39.548;-76.088;2023-04-19T03:11:18;101438.81;;;4.36;45.93
31331;BME280;34067;39.548;-76.088;2023-04-19T03:13:46;101447.82;;;5.15;46.65
31331;BME280;34067;39.548;-76.088;2023-04-19T03:16:14;101443.87;;;5.29;47.12
31331;BME280;34067;39.548;-76.088;2023-04-19T03:18:41;101446.51;;;5.94;47.47
31331;BME280;34067;39.548;-76.088;2023-04-19T03:21:09;101462.58;;;5.57;46.55
31331;BME280;34067;39.548;-76.088;2023-04-19T03:23:37;101464.99;;;5.30;47.84
31331;BME280;34067;39.548;-76.088;2023-04-19T03:26:05;101474.56;;;5.34;49.14
31331;BME280;34067;39.548;-76.088;2023-04-19T03:28:34;101473.96;;;4.99;48.45
31331;BME280;34067;39.548;-76.088;2023-04-19T03:31:02;101479.73;;;5.68;49.59
31331;BME280;34067;39.548;-76.088;2023-04-19T03:33:29;101476.00;;;5.15;49.22
31331;BME280;34067;39.548;-76.088;2023-04-19T03:35:57;101492.23;;;4.90;53.07
31331;BME280;34067;39.548;-76.088;2023-04-19T03:38:24;101479.74;;;4.88;49.89
31331;BME280;34067;39.548;-76.088;2023-04-19T03:40:52;101487.93;;;4.51;47.39
31331;BME280;34067;39.548;-76.088;2023-04-19T03:43:21;101493.84;;;4.66;49.78
31331;BME280;34067;39.548;-76.088;2023-04-19T03:45:48;101499.22;;;5.07;49.61
31331;BME280;34067;39.548;-76.088;2023-04-19T03:48:15;101494.37;;;6.17;48.29
31331;BME280;34067;39.548;-76.088;2023-04-19T03:50:44;101493.13;;;5.09;49.71
31331;BME280;34067;39.548;-76.088;2023-04-19T03:53:11;101497.50;;;4.47;49.43
31331;BME280;34067;39.548;-76.088;2023-04-19T03:55:38;101502.50;;;4.30;50.32
31331;BME280;34067;39.548;-76.088;2023-04-19T03:58:06;101514.81;;;5.45;53.52
31331;BME280;34067;39.548;-76.088;2023-04-19T04:00:35;101519.54;;;4.60;48.01
31331;BME280;34067;39.548;-76.088;2023-04-19T04:03:03;101520.58;;;5.34;46.11
31331;BME280;34067;39.548;-76.088;2023-04-19T04:05:31;101522.38;;;5.66;45.65
31331;BME280;34067;39.548;-76.088;2023-04-19T04:07:59;101525.68;;;5.67;47.66
31331;BME280;34067;39.548;-76.088;2023-04-19T04:10:26;101529.16;;;5.05;47.87
31331;BME280;34067;39.548;-76.088;2023-04-19T04:12:54;101534.31;;;4.09;46.31
31331;BME280;34067;39.548;-76.088;2023-04-19T04:15:22;101535.78;;;5.44;46.72
31331;BME280;34067;39.548;-76.088;2023-04-19T04:17:49;101531.01;;;7.19;46.26
31331;BME280;34067;39.548;-76.088;2023-04-19T04:20:18;101533.49;;;5.68;45.92
31331;BME280;34067;39.548;-76.088;2023-04-19T04:22:46;101531.70;;;7.84;45.29
31331;BME280;34067;39.548;-76.088;2023-04-19T04:25:14;101534.67;;;7.56;44.67
31331;BME280;34067;39.548;-76.088;2023-04-19T04:27:43;101535.08;;;7.12;43.47
31331;BME280;34067;39.548;-76.088;2023-04-19T04:30:11;101535.25;;;7.30;43.26
31331;BME280;34067;39.548;-76.088;2023-04-19T04:32:39;101536.68;;;6.38;45.71
31331;BME280;34067;39.548;-76.088;2023-04-19T04:35:08;101531.94;;;6.74;46.62
31331;BME280;34067;39.548;-76.088;2023-04-19T04:37:36;101535.49;;;7.25;43.82
31331;BME280;34067;39.548;-76.088;2023-04-19T04:40:05;101535.99;;;6.44;43.36
31331;BME280;34067;39.548;-76.088;2023-04-19T04:42:33;101532.87;;;7.76;44.40
31331;BME280;34067;39.548;-76.088;2023-04-19T04:45:02;101531.07;;;7.53;41.70
31331;BME280;34067;39.548;-76.088;2023-04-19T04:47:31;101530.41;;;8.83;42.90
31331;BME280;34067;39.548;-76.088;2023-04-19T04:49:59;101535.48;;;8.89;40.30
31331;BME280;34067;39.548;-76.088;2023-04-19T04:52:28;101534.28;;;9.35;39.12
31331;BME280;34067;39.548;-76.088;2023-04-19T04:54:55;101530.91;;;9.01;39.22
31331;BME280;34067;39.548;-76.088;2023-04-19T04:57:24;101531.72;;;9.21;39.94
31331;BME280;34067;39.548;-76.088;2023-04-19T04:59:52;101530.45;;;9.45;39.68
31331;BME280;34067;39.548;-76.088;2023-04-19T05:03:10;101531.54;;;9.17;37.85
31331;BME280;34067;39.548;-76.088;2023-04-19T05:05:38;101528.22;;;9.33;37.74
31331;BME280;34067;39.548;-76.088;2023-04-19T05:08:08;101526.41;;;8.77;39.36
31331;BME280;34067;39.548;-76.088;2023-04-19T05:10:36;101524.11;;;9.36;37.40
31331;BME280;34067;39.548;-76.088;2023-04-19T05:13:03;101524.53;;;10.00;36.39
31331;BME280;34067;39.548;-76.088;2023-04-19T05:15:31;101526.30;;;9.35;38.00
31331;BME280;34067;39.548;-76.088;2023-04-19T05:17:58;101524.03;;;9.33;39.23
31331;BME280;34067;39.548;-76.088;2023-04-19T05:20:26;101526.04;;;9.68;38.81
31331;BME280;34067;39.548;-76.088;2023-04-19T05:22:57;101524.26;;;9.09;38.99
31331;BME280;34067;39.548;-76.088;2023-04-19T05:25:25;101526.46;;;9.04;39.51
31331;BME280;34067;39.548;-76.088;2023-04-19T05:27:53;101530.88;;;9.26;37.87
31331;BME280;34067;39.548;-76.088;2023-04-19T05:30:20;101530.99;;;9.56;38.77
31331;BME280;34067;39.548;-76.088;2023-04-19T05:32:48;101533.42;;;9.17;39.42
31331;BME280;34067;39.548;-76.088;2023-04-19T05:35:16;101533.42;;;8.78;38.67
31331;BME280;34067;39.548;-76.088;2023-04-19T05:37:44;101533.97;;;8.88;37.83
31331;BME280;34067;39.548;-76.088;2023-04-19T05:40:13;101532.38;;;8.96;37.73
31331;BME280;34067;39.548;-76.088;2023-04-19T05:42:41;101533.27;;;8.91;38.09
31331;BME280;34067;39.548;-76.088;2023-04-19T05:45:09;101534.56;;;8.83;38.46
31331;BME280;34067;39.548;-76.088;2023-04-19T05:47:37;101534.73;;;7.96;39.28
31331;BME280;34067;39.548;-76.088;2023-04-19T05:50:05;101536.70;;;7.62;40.02
31331;BME280;34067;39.548;-76.088;2023-04-19T05:52:34;101536.08;;;8.01;40.08
31331;BME280;34067;39.548;-76.088;2023-04-19T05:55:02;101533.56;;;8.06;39.99
31331;BME280;34067;39.548;-76.088;2023-04-19T05:57:30;101538.17;;;7.66;40.36
31331;BME280;34067;39.548;-76.088;2023-04-19T05:59:58;101533.64;;;7.36;40.68
31331;BME280;34067;39.548;-76.088;2023-04-19T06:02:25;101538.30;;;7.46;40.51
31331;BME280;34067;39.548;-76.088;2023-04-19T06:04:53;101536.64;;;6.66;41.05
31331;BME280;34067;39.548;-76.088;2023-04-19T06:07:21;101537.29;;;6.79;41.07
31331;BME280;34067;39.548;-76.088;2023-04-19T06:09:48;101536.22;;;7.03;41.00
31331;BME280;34067;39.548;-76.088;2023-04-19T06:12:16;101543.94;;;6.85;41.51
31331;BME280;34067;39.548;-76.088;2023-04-19T06:14:43;101539.41;;;7.50;41.29
31331;BME280;34067;39.548;-76.088;2023-04-19T06:17:11;101545.34;;;6.87;41.35
31331;BME280;34067;39.548;-76.088;2023-04-19T06:19:38;101542.00;;;6.50;41.88
31331;BME280;34067;39.548;-76.088;2023-04-19T06:22:06;101547.46;;;6.92;41.68
31331;BME280;34067;39.548;-76.088;2023-04-19T06:24:34;101550.58;;;7.18;41.73
31331;BME280;34067;39.548;-76.088;2023-04-19T06:27:02;101547.03;;;6.20;42.03
31331;BME280;34067;39.548;-76.088;2023-04-19T06:29:29;101552.58;;;7.11;42.00
31331;BME280;34067;39.548;-76.088;2023-04-19T06:31:57;101556.39;;;6.93;41.94
31331;BME280;34067;39.548;-76.088;2023-04-19T06:34:24;101556.80;;;7.15;41.91
31331;BME280;34067;39.548;-76.088;2023-04-19T06:36:52;101561.10;;;6.39;42.84
31331;BME280;34067;39.548;-76.088;2023-04-19T06:39:19;101564.76;;;7.26;42.37
31331;BME280;34067;39.548;-76.088;2023-04-19T06:41:48;101559.68;;;6.35;42.93
31331;BME280;34067;39.548;-76.088;2023-04-19T06:44:15;101563.78;;;6.52;42.47
31331;BME280;34067;39.548;-76.088;2023-04-19T06:46:43;101563.06;;;7.82;41.69
31331;BME280;34067;39.548;-76.088;2023-04-19T06:49:11;101557.64;;;7.24;42.01
31331;BME280;34067;39.548;-76.088;2023-04-19T06:51:38;101566.27;;;7.36;42.00
31331;BME280;34067;39.548;-76.088;2023-04-19T06:54:07;101568.42;;;7.30;41.38
31331;BME280;34067;39.548;-76.088;2023-04-19T06:56:41;101571.08;;;7.05;41.60
31331;BME280;34067;39.548;-76.088;2023-04-19T06:59:08;101572.81;;;7.68;41.57
31331;BME280;34067;39.548;-76.088;2023-04-19T07:01:36;101569.74;;;7.75;40.85
31331;BME280;34067;39.548;-76.088;2023-04-19T07:04:06;101573.45;;;7.42;41.00
31331;BME280;34067;39.548;-76.088;2023-04-19T07:06:35;101571.32;;;6.94;41.52
31331;BME280;34067;39.548;-76.088;2023-04-19T07:09:04;101571.67;;;6.47;41.83
31331;BME280;34067;39.548;-76.088;2023-04-19T07:11:32;101573.62;;;6.89;41.63
31331;BME280;34067;39.548;-76.088;2023-04-19T07:14:00;101571.51;;;6.77;41.56
31331;BME280;34067;39.548;-76.088;2023-04-19T07:16:28;101569.41;;;7.94;41.16
31331;BME280;34067;39.548;-76.088;2023-04-19T07:18:56;101570.34;;;7.15;41.16
31331;BME280;34067;39.548;-76.088;2023-04-19T07:21:24;101573.12;;;7.03;41.15
31331;BME280;34067;39.548;-76.088;2023-04-19T07:23:52;101577.19;;;6.84;41.47
31331;BME280;34067;39.548;-76.088;2023-04-19T07:26:19;101582.20;;;5.94;42.29
31331;BME280;34067;39.548;-76.088;2023-04-19T07:28:46;101581.68;;;5.90;42.36
31331;BME280;34067;39.548;-76.088;2023-04-19T07:31:15;101582.15;;;6.77;41.65
31331;BME280;34067;39.548;-76.088;2023-04-19T07:33:44;101582.58;;;6.69;41.40
31331;BME280;34067;39.548;-76.088;2023-04-19T07:36:12;101587.00;;;6.74;41.36
31331;BME280;34067;39.548;-76.088;2023-04-19T07:38:40;101591.70;;;7.41;41.65
31331;BME280;34067;39.548;-76.088;2023-04-19T07:41:08;101593.97;;;6.20;41.98
31331;BME280;34067;39.548;-76.088;2023-04-19T07:43:36;101591.60;;;7.19;41.35
31331;BME280;34067;39.548;-76.088;2023-04-19T07:46:09;101594.49;;;6.97;41.15
31331;BME280;34067;39.548;-76.088;2023-04-19T07:48:38;101595.33;;;6.91;41.32
31331;BME280;34067;39.548;-76.088;2023-04-19T07:51:11;101595.94;;;6.86;41.64
31331;BME280;34067;39.548;-76.088;2023-04-19T07:53:39;101593.60;;;6.81;41.54
31331;BME280;34067;39.548;-76.088;2023-04-19T07:56:08;101596.02;;;7.31;41.49
31331;BME280;34067;39.548;-76.088;2023-04-19T07:58:37;101600.06;;;7.18;40.93
31331;BME280;34067;39.548;-76.088;2023-04-19T08:01:05;101597.37;;;6.79;41.66
31331;BME280;34067;39.548;-76.088;2023-04-19T08:03:33;101596.55;;;7.06;41.18
31331;BME280;34067;39.548;-76.088;2023-04-19T08:06:02;101600.12;;;6.93;41.25
31331;BME280;34067;39.548;-76.088;2023-04-19T08:08:30;101603.20;;;6.48;41.53
31331;BME280;34067;39.548;-76.088;2023-04-19T08:10:58;101605.57;;;6.81;41.74
31331;BME280;34067;39.548;-76.088;2023-04-19T08:13:25;101608.37;;;6.52;41.48
31331;BME280;34067;39.548;-76.088;2023-04-19T08:15:53;101609.40;;;6.45;41.53
31331;BME280;34067;39.548;-76.088;2023-04-19T08:18:21;101608.29;;;6.84;41.56
31331;BME280;34067;39.548;-76.088;2023-04-19T08:20:49;101605.03;;;6.80;41.63
31331;BME280;34067;39.548;-76.088;2023-04-19T08:23:17;101604.59;;;6.61;41.41
31331;BME280;34067;39.548;-76.088;2023-04-19T08:25:45;101611.62;;;6.63;41.86
31331;BME280;34067;39.548;-76.088;2023-04-19T08:28:12;101617.69;;;6.76;41.62
31331;BME280;34067;39.548;-76.088;2023-04-19T08:30:40;101617.34;;;6.53;41.56
31331;BME280;34067;39.548;-76.088;2023-04-19T08:33:08;101617.75;;;6.34;41.62
31331;BME280;34067;39.548;-76.088;2023-04-19T08:35:37;101616.10;;;6.55;41.65
31331;BME280;34067;39.548;-76.088;2023-04-19T08:38:05;101624.70;;;7.43;41.53
31331;BME280;34067;39.548;-76.088;2023-04-19T08:40:32;101621.64;;;7.02;41.56
31331;BME280;34067;39.548;-76.088;2023-04-19T08:43:05;101624.86;;;6.54;41.64
31331;BME280;34067;39.548;-76.088;2023-04-19T08:45:34;101625.95;;;6.78;41.34
31331;BME280;34067;39.548;-76.088;2023-04-19T08:48:03;101631.14;;;6.19;41.65
31331;BME280;34067;39.548;-76.088;2023-04-19T08:50:32;101634.09;;;6.18;42.16
31331;BME280;34067;39.548;-76.088;2023-04-19T08:53:00;101641.43;;;6.60;42.12
31331;BME280;34067;39.548;-76.088;2023-04-19T08:55:28;101644.32;;;6.07;42.68
31331;BME280;34067;39.548;-76.088;2023-04-19T08:57:57;101643.88;;;6.88;42.37
31331;BME280;34067;39.548;-76.088;2023-04-19T09:00:24;101646.39;;;6.66;42.51
31331;BME280;34067;39.548;-76.088;2023-04-19T09:02:53;101648.84;;;6.75;42.40
31331;BME280;34067;39.548;-76.088;2023-04-19T09:05:20;101658.26;;;6.17;42.87
31331;BME280;34067;39.548;-76.088;2023-04-19T09:07:49;101663.37;;;7.37;42.01
31331;BME280;34067;39.548;-76.088;2023-04-19T09:10:18;101671.92;;;6.82;41.04
31331;BME280;34067;39.548;-76.088;2023-04-19T09:13:02;101675.75;;;6.73;40.90
31331;BME280;34067;39.548;-76.088;2023-04-19T09:15:38;101677.72;;;6.90;40.41
31331;BME280;34067;39.548;-76.088;2023-04-19T09:18:08;101670.51;;;7.71;40.07
31331;BME280;34067;39.548;-76.088;2023-04-19T09:20:37;101676.56;;;8.23;39.88
31331;BME280;34067;39.548;-76.088;2023-04-19T09:23:06;101678.60;;;7.88;39.32
31331;BME280;34067;39.548;-76.088;2023-04-19T09:25:34;101682.02;;;7.60;40.56
31331;BME280;34067;39.548;-76.088;2023-04-19T09:28:09;101680.75;;;7.21;42.88
31331;BME280;34067;39.548;-76.088;2023-04-19T09:30:37;101683.79;;;8.16;41.08
31331;BME280;34067;39.548;-76.088;2023-04-19T09:33:05;101685.13;;;8.16;39.51
31331;BME280;34067;39.548;-76.088;2023-04-19T09:35:40;101691.25;;;8.30;39.09
31331;BME280;34067;39.548;-76.088;2023-04-19T09:38:08;101697.79;;;6.80;39.46
31331;BME280;34067;39.548;-76.088;2023-04-19T09:40:38;101695.38;;;7.85;39.48
31331;BME280;34067;39.548;-76.088;2023-04-19T09:43:07;101695.77;;;7.30;39.29
31331;BME280;34067;39.548;-76.088;2023-04-19T09:45:43;101696.51;;;7.80;39.08
31331;BME280;34067;39.548;-76.088;2023-04-19T09:48:12;101703.78;;;7.35;40.16
31331;BME280;34067;39.548;-76.088;2023-04-19T09:50:52;101708.04;;;7.63;40.00
31331;BME280;34067;39.548;-76.088;2023-04-19T09:53:20;101713.74;;;7.98;39.25
31331;BME280;34067;39.548;-76.088;2023-04-19T09:55:49;101716.71;;;7.58;40.19
31331;BME280;34067;39.548;-76.088;2023-04-19T09:58:18;101717.46;;;7.67;40.26
31331;BME280;34067;39.548;-76.088;2023-04-19T10:00:48;101727.56;;;7.48;40.17
31331;BME280;34067;39.548;-76.088;2023-04-19T10:03:16;101733.90;;;8.07;38.80
31331;BME280;34067;39.548;-76.088;2023-04-19T10:05:45;101739.84;;;8.45;39.62
31331;BME280;34067;39.548;-76.088;2023-04-19T10:08:13;101745.15;;;8.51;40.66
31331;BME280;34067;39.548;-76.088;2023-04-19T10:10:44;101757.77;;;7.55;41.99
31331;BME280;34067;39.548;-76.088;2023-04-19T10:13:16;101752.94;;;7.41;43.84
31331;BME280;34067;39.548;-76.088;2023-04-19T10:15:45;101757.58;;;7.39;44.55
31331;BME280;34067;39.548;-76.088;2023-04-19T10:18:14;101762.66;;;7.08;48.06
31331;BME280;34067;39.548;-76.088;2023-04-19T10:20:48;101764.68;;;7.02;49.06
31331;BME280;34067;39.548;-76.088;2023-04-19T10:23:18;101768.54;;;7.11;50.93
31331;BME280;34067;39.548;-76.088;2023-04-19T10:25:54;101774.63;;;6.30;52.72
31331;BME280;34067;39.548;-76.088;2023-04-19T10:28:22;101780.88;;;5.64;54.11
31331;BME280;34067;39.548;-76.088;2023-04-19T10:30:58;101782.09;;;6.15;55.79
31331;BME280;34067;39.548;-76.088;2023-04-19T10:33:30;101787.23;;;6.33;54.79
31331;BME280;34067;39.548;-76.088;2023-04-19T10:36:03;101788.21;;;6.08;54.25
31331;BME280;34067;39.548;-76.088;2023-04-19T10:38:38;101798.11;;;6.27;53.06
31331;BME280;34067;39.548;-76.088;2023-04-19T10:41:07;101800.01;;;5.96;52.04
31331;BME280;34067;39.548;-76.088;2023-04-19T10:43:37;101803.72;;;6.28;53.61
31331;BME280;34067;39.548;-76.088;2023-04-19T10:46:07;101808.31;;;6.51;51.34
31331;BME280;34067;39.548;-76.088;2023-04-19T10:48:37;101817.71;;;6.78;52.00
31331;BME280;34067;39.548;-76.088;2023-04-19T10:51:12;101822.60;;;6.25;50.31
31331;BME280;34067;39.548;-76.088;2023-04-19T10:53:45;101830.14;;;7.46;47.86
31331;BME280;34067;39.548;-76.088;2023-04-19T10:56:14;101842.65;;;7.23;46.73
31331;BME280;34067;39.548;-76.088;2023-04-19T10:59:32;101847.82;;;7.85;46.24
31331;BME280;34067;39.548;-76.088;2023-04-19T11:02:01;101846.79;;;7.10;44.46
31331;BME280;34067;39.548;-76.088;2023-04-19T11:04:59;101850.02;;;7.61;43.06
31331;BME280;34067;39.548;-76.088;2023-04-19T11:07:27;101853.15;;;6.62;44.45
31331;BME280;34067;39.548;-76.088;2023-04-19T11:09:55;101853.03;;;6.95;43.69
31331;BME280;34067;39.548;-76.088;2023-04-19T11:12:23;101854.13;;;8.07;42.49
31331;BME280;34067;39.548;-76.088;2023-04-19T11:14:53;101860.00;;;7.43;43.78
31331;BME280;34067;39.548;-76.088;2023-04-19T11:17:23;101865.92;;;6.99;44.20
31331;BME280;34067;39.548;-76.088;2023-04-19T11:19:55;101868.93;;;6.50;45.66
31331;BME280;34067;39.548;-76.088;2023-04-19T11:22:30;101874.61;;;6.87;45.59
31331;BME280;34067;39.548;-76.088;2023-04-19T11:25:07;101873.04;;;6.54;46.41
31331;BME280;34067;39.548;-76.088;2023-04-19T11:27:35;101875.71;;;6.69;50.73
31331;BME280;34067;39.548;-76.088;2023-04-19T11:30:05;101884.08;;;6.15;61.61
31331;BME280;34067;39.548;-76.088;2023-04-19T11:32:34;101884.64;;;6.34;59.29
31331;BME280;34067;39.548;-76.088;2023-04-19T11:35:07;101893.96;;;6.06;61.20
31331;BME280;34067;39.548;-76.088;2023-04-19T11:37:36;101890.60;;;6.10;61.86
31331;BME280;34067;39.548;-76.088;2023-04-19T11:40:07;101889.23;;;6.72;58.94
31331;BME280;34067;39.548;-76.088;2023-04-19T11:42:35;101887.57;;;7.43;50.73
31331;BME280;34067;39.548;-76.088;2023-04-19T11:45:04;101887.18;;;7.61;56.21
31331;BME280;34067;39.548;-76.088;2023-04-19T11:47:32;101891.66;;;8.18;48.42
31331;BME280;34067;39.548;-76.088;2023-04-19T11:50:31;101895.84;;;8.29;48.92
31331;BME280;34067;39.548;-76.088;2023-04-19T11:53:09;101897.55;;;8.09;48.28
31331;BME280;34067;39.548;-76.088;2023-04-19T11:55:37;101901.07;;;7.53;53.52
31331;BME280;34067;39.548;-76.088;2023-04-19T11:58:06;101900.66;;;8.00;54.29
31331;BME280;34067;39.548;-76.088;2023-04-19T12:00:34;101905.30;;;8.06;54.30
31331;BME280;34067;39.548;-76.088;2023-04-19T12:03:03;101911.18;;;8.17;56.69
31331;BME280;34067;39.548;-76.088;2023-04-19T12:05:30;101907.47;;;7.67;56.52
31331;BME280;34067;39.548;-76.088;2023-04-19T12:08:00;101906.40;;;7.79;49.47
31331;BME280;34067;39.548;-76.088;2023-04-19T12:10:28;101904.01;;;8.57;47.64
31331;BME280;34067;39.548;-76.088;2023-04-19T12:12:56;101895.88;;;9.24;42.00
31331;BME280;34067;39.548;-76.088;2023-04-19T12:15:40;101891.83;;;9.59;41.34
31331;BME280;34067;39.548;-76.088;2023-04-19T12:18:08;101893.90;;;7.78;41.59
31331;BME280;34067;39.548;-76.088;2023-04-19T12:20:42;101901.00;;;7.62;41.91
31331;BME280;34067;39.548;-76.088;2023-04-19T12:23:10;101900.83;;;7.82;41.60
31331;BME280;34067;39.548;-76.088;2023-04-19T12:25:38;101891.20;;;9.84;40.34
31331;BME280;34067;39.548;-76.088;2023-04-19T12:28:07;101893.06;;;9.87;39.60
31331;BME280;34067;39.548;-76.088;2023-04-19T12:30:35;101889.22;;;9.36;38.75
31331;BME280;34067;39.548;-76.088;2023-04-19T12:33:03;101891.58;;;9.27;38.41
31331;BME280;34067;39.548;-76.088;2023-04-19T12:35:34;101891.84;;;9.48;37.86
31331;BME280;34067;39.548;-76.088;2023-04-19T12:38:01;101893.08;;;9.87;38.13
31331;BME280;34067;39.548;-76.088;2023-04-19T12:40:30;101893.01;;;10.31;37.10
31331;BME280;34067;39.548;-76.088;2023-04-19T12:42:58;101887.70;;;11.13;37.11
31331;BME280;34067;39.548;-76.088;2023-04-19T12:45:26;101887.57;;;10.87;36.94
31331;BME280;34067;39.548;-76.088;2023-04-19T12:47:54;101888.87;;;10.86;36.50
31331;BME280;34067;39.548;-76.088;2023-04-19T12:50:22;101884.55;;;11.67;35.89